Terminal Aerodrome Forecast
Issued by NWS

Home | Current Version | Previous Version | Text Only | Print | Product List | Glossary On
Versions: 1 2 3 4 5 6 7 8 9 10 11 12 13 14 15 16 17 18 19 20 21 22 23 24
000
FTUS45 KBOI 291128
TAFMYL
TAF
KMYL 291128Z 2912/3012 VRB06KT P6SM FEW250
     FM291800 17011KT P6SM SCT250
     FM292100 19014G22KT P6SM FEW120 SCT250
     FM300200 VRB06KT P6SM BKN120 BKN200=

USA.gov is the U.S. government's official web portal to all federal, state and local government web resources and services.